sensor_id;sensor_type;location;lat;lon;timestamp;P1;durP1;ratioP1;P2;durP2;ratioP2
52618;SDS011;38513;53.234;6.568;2023-04-15T00:01:32;18.15;;;8.75;;
52618;SDS011;38513;53.234;6.568;2023-04-15T00:04:01;17.20;;;8.48;;
52618;SDS011;38513;53.234;6.568;2023-04-15T00:06:27;16.42;;;8.23;;
52618;SDS011;38513;53.234;6.568;2023-04-15T00:08:53;17.10;;;7.85;;
52618;SDS011;38513;53.234;6.568;2023-04-15T00:11:19;16.27;;;8.65;;
52618;SDS011;38513;53.234;6.568;2023-04-15T00:13:46;16.90;;;8.10;;
52618;SDS011;38513;53.234;6.568;2023-04-15T00:16:13;15.63;;;8.63;;
52618;SDS011;38513;53.234;6.568;2023-04-15T00:18:39;17.15;;;8.60;;
52618;SDS011;38513;53.234;6.568;2023-04-15T00:21:05;16.02;;;8.40;;
52618;SDS011;38513;53.234;6.568;2023-04-15T00:23:32;17.75;;;9.25;;
52618;SDS011;38513;53.234;6.568;2023-04-15T00:25:58;15.48;;;8.88;;
52618;SDS011;38513;53.234;6.568;2023-04-15T00:28:24;16.27;;;8.30;;
52618;SDS011;38513;53.234;6.568;2023-04-15T00:30:51;18.00;;;8.93;;
52618;SDS011;38513;53.234;6.568;2023-04-15T00:33:17;16.77;;;8.93;;
52618;SDS011;38513;53.234;6.568;2023-04-15T00:35:43;18.92;;;9.15;;
52618;SDS011;38513;53.234;6.568;2023-04-15T00:38:10;17.50;;;9.20;;
52618;SDS011;38513;53.234;6.568;2023-04-15T00:40:36;16.48;;;9.45;;
52618;SDS011;38513;53.234;6.568;2023-04-15T00:43:02;16.42;;;9.00;;
52618;SDS011;38513;53.234;6.568;2023-04-15T00:45:29;16.92;;;9.70;;
52618;SDS011;38513;53.234;6.568;2023-04-15T00:47:56;17.92;;;9.70;;
52618;SDS011;38513;53.234;6.568;2023-04-15T00:50:22;14.93;;;9.60;;
52618;SDS011;38513;53.234;6.568;2023-04-15T00:52:48;16.48;;;9.93;;
52618;SDS011;38513;53.234;6.568;2023-04-15T00:55:15;19.35;;;10.73;;
52618;SDS011;38513;53.234;6.568;2023-04-15T00:57:41;16.73;;;10.32;;
52618;SDS011;38513;53.234;6.568;2023-04-15T01:00:07;17.33;;;10.10;;
52618;SDS011;38513;53.234;6.568;2023-04-15T01:02:35;18.53;;;9.67;;
52618;SDS011;38513;53.234;6.568;2023-04-15T01:05:04;16.15;;;9.60;;
52618;SDS011;38513;53.234;6.568;2023-04-15T01:07:31;17.48;;;10.18;;
52618;SDS011;38513;53.234;6.568;2023-04-15T01:09:58;18.65;;;11.25;;
52618;SDS011;38513;53.234;6.568;2023-04-15T01:12:25;18.13;;;10.63;;
52618;SDS011;38513;53.234;6.568;2023-04-15T01:14:52;18.70;;;10.80;;
52618;SDS011;38513;53.234;6.568;2023-04-15T01:17:19;19.63;;;10.38;;
52618;SDS011;38513;53.234;6.568;2023-04-15T01:19:48;16.92;;;10.57;;
52618;SDS011;38513;53.234;6.568;2023-04-15T01:22:15;17.73;;;10.57;;
52618;SDS011;38513;53.234;6.568;2023-04-15T01:24:44;19.35;;;10.70;;
52618;SDS011;38513;53.234;6.568;2023-04-15T01:27:17;19.25;;;11.02;;
52618;SDS011;38513;53.234;6.568;2023-04-15T01:29:44;17.90;;;10.77;;
52618;SDS011;38513;53.234;6.568;2023-04-15T01:32:11;18.83;;;11.05;;
52618;SDS011;38513;53.234;6.568;2023-04-15T01:34:41;20.52;;;11.55;;
52618;SDS011;38513;53.234;6.568;2023-04-15T01:37:07;19.45;;;11.15;;
52618;SDS011;38513;53.234;6.568;2023-04-15T01:39:35;15.55;;;10.60;;
52618;SDS011;38513;53.234;6.568;2023-04-15T01:42:02;18.80;;;11.73;;
52618;SDS011;38513;53.234;6.568;2023-04-15T01:44:28;20.08;;;11.07;;
52618;SDS011;38513;53.234;6.568;2023-04-15T01:46:54;18.00;;;10.70;;
52618;SDS011;38513;53.234;6.568;2023-04-15T01:49:23;19.23;;;11.18;;
52618;SDS011;38513;53.234;6.568;2023-04-15T01:51:49;18.27;;;11.07;;
52618;SDS011;38513;53.234;6.568;2023-04-15T01:54:16;18.80;;;11.32;;
52618;SDS011;38513;53.234;6.568;2023-04-15T01:56:44;20.67;;;11.82;;
52618;SDS011;38513;53.234;6.568;2023-04-15T01:59:11;17.48;;;11.73;;
52618;SDS011;38513;53.234;6.568;2023-04-15T02:01:37;19.38;;;12.65;;
52618;SDS011;38513;53.234;6.568;2023-04-15T02:04:06;20.00;;;12.32;;
52618;SDS011;38513;53.234;6.568;2023-04-15T02:06:33;19.73;;;12.90;;
52618;SDS011;38513;53.234;6.568;2023-04-15T02:09:00;21.98;;;13.45;;
52618;SDS011;38513;53.234;6.568;2023-04-15T02:11:26;20.27;;;13.18;;
52618;SDS011;38513;53.234;6.568;2023-04-15T02:13:56;20.77;;;13.30;;
52618;SDS011;38513;53.234;6.568;2023-04-15T02:16:25;21.05;;;12.98;;
52618;SDS011;38513;53.234;6.568;2023-04-15T02:18:51;21.95;;;14.43;;
52618;SDS011;38513;53.234;6.568;2023-04-15T02:21:17;18.65;;;13.32;;
52618;SDS011;38513;53.234;6.568;2023-04-15T02:23:43;19.77;;;14.38;;
52618;SDS011;38513;53.234;6.568;2023-04-15T02:26:12;19.95;;;13.93;;
52618;SDS011;38513;53.234;6.568;2023-04-15T02:28:41;20.77;;;14.13;;
52618;SDS011;38513;53.234;6.568;2023-04-15T02:31:07;20.83;;;14.38;;
52618;SDS011;38513;53.234;6.568;2023-04-15T02:33:33;22.00;;;14.90;;
52618;SDS011;38513;53.234;6.568;2023-04-15T02:36:01;21.97;;;14.10;;
52618;SDS011;38513;53.234;6.568;2023-04-15T02:38:27;20.25;;;13.73;;
52618;SDS011;38513;53.234;6.568;2023-04-15T02:40:59;20.80;;;14.85;;
52618;SDS011;38513;53.234;6.568;2023-04-15T02:43:25;20.00;;;14.05;;
52618;SDS011;38513;53.234;6.568;2023-04-15T02:45:51;21.30;;;14.68;;
52618;SDS011;38513;53.234;6.568;2023-04-15T02:48:17;21.98;;;15.25;;
52618;SDS011;38513;53.234;6.568;2023-04-15T02:50:45;21.05;;;14.57;;
52618;SDS011;38513;53.234;6.568;2023-04-15T02:53:12;22.15;;;15.25;;
52618;SDS011;38513;53.234;6.568;2023-04-15T02:55:38;23.02;;;15.77;;
52618;SDS011;38513;53.234;6.568;2023-04-15T02:58:05;24.30;;;15.87;;
52618;SDS011;38513;53.234;6.568;2023-04-15T03:00:31;23.80;;;16.77;;
52618;SDS011;38513;53.234;6.568;2023-04-15T03:03:00;24.55;;;16.52;;
52618;SDS011;38513;53.234;6.568;2023-04-15T03:05:26;23.73;;;16.15;;
52618;SDS011;38513;53.234;6.568;2023-04-15T03:07:53;24.48;;;17.33;;
52618;SDS011;38513;53.234;6.568;2023-04-15T03:10:19;23.75;;;17.23;;
52618;SDS011;38513;53.234;6.568;2023-04-15T03:12:46;24.58;;;17.05;;
52618;SDS011;38513;53.234;6.568;2023-04-15T03:15:12;23.35;;;16.13;;
52618;SDS011;38513;53.234;6.568;2023-04-15T03:17:38;28.10;;;19.75;;
52618;SDS011;38513;53.234;6.568;2023-04-15T03:20:05;27.00;;;19.20;;
52618;SDS011;38513;53.234;6.568;2023-04-15T03:22:31;26.20;;;17.92;;
52618;SDS011;38513;53.234;6.568;2023-04-15T03:24:58;26.20;;;19.13;;
52618;SDS011;38513;53.234;6.568;2023-04-15T03:27:24;27.48;;;19.08;;
52618;SDS011;38513;53.234;6.568;2023-04-15T03:29:50;23.67;;;17.73;;
52618;SDS011;38513;53.234;6.568;2023-04-15T03:32:17;27.40;;;19.30;;
52618;SDS011;38513;53.234;6.568;2023-04-15T03:34:43;27.95;;;20.50;;
52618;SDS011;38513;53.234;6.568;2023-04-15T03:37:09;28.77;;;19.67;;
52618;SDS011;38513;53.234;6.568;2023-04-15T03:39:36;26.60;;;19.42;;
52618;SDS011;38513;53.234;6.568;2023-04-15T03:42:02;29.08;;;20.67;;
52618;SDS011;38513;53.234;6.568;2023-04-15T03:44:28;26.85;;;20.50;;
52618;SDS011;38513;53.234;6.568;2023-04-15T03:46:54;29.95;;;21.33;;
52618;SDS011;38513;53.234;6.568;2023-04-15T03:49:20;24.00;;;18.52;;
52618;SDS011;38513;53.234;6.568;2023-04-15T03:51:47;31.33;;;21.13;;
52618;SDS011;38513;53.234;6.568;2023-04-15T03:54:13;29.65;;;21.30;;
52618;SDS011;38513;53.234;6.568;2023-04-15T03:56:40;27.40;;;19.58;;
52618;SDS011;38513;53.234;6.568;2023-04-15T03:59:08;29.73;;;21.08;;
52618;SDS011;38513;53.234;6.568;2023-04-15T04:01:37;28.93;;;21.53;;
52618;SDS011;38513;53.234;6.568;2023-04-15T04:04:03;28.40;;;21.25;;
52618;SDS011;38513;53.234;6.568;2023-04-15T04:06:32;32.75;;;21.77;;
52618;SDS011;38513;53.234;6.568;2023-04-15T04:08:58;30.88;;;22.13;;
52618;SDS011;38513;53.234;6.568;2023-04-15T04:11:25;29.67;;;20.92;;
52618;SDS011;38513;53.234;6.568;2023-04-15T04:13:52;30.97;;;22.40;;
52618;SDS011;38513;53.234;6.568;2023-04-15T04:16:21;30.40;;;21.07;;
52618;SDS011;38513;53.234;6.568;2023-04-15T04:18:47;30.45;;;22.15;;
52618;SDS011;38513;53.234;6.568;2023-04-15T04:21:13;30.77;;;21.38;;
52618;SDS011;38513;53.234;6.568;2023-04-15T04:23:40;28.17;;;20.27;;
52618;SDS011;38513;53.234;6.568;2023-04-15T04:26:09;28.00;;;20.48;;
52618;SDS011;38513;53.234;6.568;2023-04-15T04:28:35;27.48;;;19.95;;
52618;SDS011;38513;53.234;6.568;2023-04-15T04:31:03;29.73;;;20.98;;
52618;SDS011;38513;53.234;6.568;2023-04-15T04:33:29;31.02;;;21.80;;
52618;SDS011;38513;53.234;6.568;2023-04-15T04:35:56;31.52;;;22.92;;
52618;SDS011;38513;53.234;6.568;2023-04-15T04:38:25;34.05;;;23.33;;
52618;SDS011;38513;53.234;6.568;2023-04-15T04:40:51;32.72;;;23.60;;
52618;SDS011;38513;53.234;6.568;2023-04-15T04:43:17;32.20;;;22.27;;
52618;SDS011;38513;53.234;6.568;2023-04-15T04:45:43;32.88;;;23.40;;
52618;SDS011;38513;53.234;6.568;2023-04-15T04:48:09;29.50;;;20.58;;
52618;SDS011;38513;53.234;6.568;2023-04-15T04:50:35;31.73;;;21.45;;
52618;SDS011;38513;53.234;6.568;2023-04-15T04:53:02;28.60;;;21.48;;
52618;SDS011;38513;53.234;6.568;2023-04-15T04:55:28;28.13;;;20.38;;
52618;SDS011;38513;53.234;6.568;2023-04-15T04:57:56;31.60;;;21.92;;
52618;SDS011;38513;53.234;6.568;2023-04-15T05:00:22;31.52;;;22.08;;
52618;SDS011;38513;53.234;6.568;2023-04-15T05:02:48;30.23;;;21.92;;
52618;SDS011;38513;53.234;6.568;2023-04-15T05:05:15;31.42;;;22.75;;
52618;SDS011;38513;53.234;6.568;2023-04-15T05:07:44;33.45;;;23.83;;
52618;SDS011;38513;53.234;6.568;2023-04-15T05:10:11;33.63;;;23.95;;
52618;SDS011;38513;53.234;6.568;2023-04-15T05:12:38;31.98;;;22.40;;
52618;SDS011;38513;53.234;6.568;2023-04-15T05:15:05;33.53;;;23.43;;
52618;SDS011;38513;53.234;6.568;2023-04-15T05:17:31;36.70;;;24.80;;
52618;SDS011;38513;53.234;6.568;2023-04-15T05:19:59;35.70;;;24.55;;
52618;SDS011;38513;53.234;6.568;2023-04-15T05:22:26;37.67;;;24.13;;
52618;SDS011;38513;53.234;6.568;2023-04-15T05:24:52;35.97;;;23.73;;
52618;SDS011;38513;53.234;6.568;2023-04-15T05:27:21;34.13;;;24.30;;
52618;SDS011;38513;53.234;6.568;2023-04-15T05:29:48;34.42;;;23.15;;
52618;SDS011;38513;53.234;6.568;2023-04-15T05:32:14;30.80;;;22.43;;
52618;SDS011;38513;53.234;6.568;2023-04-15T05:34:41;29.38;;;21.23;;
52618;SDS011;38513;53.234;6.568;2023-04-15T05:37:07;29.40;;;20.73;;
52618;SDS011;38513;53.234;6.568;2023-04-15T05:39:33;30.10;;;20.57;;
52618;SDS011;38513;53.234;6.568;2023-04-15T05:42:02;29.70;;;20.87;;
52618;SDS011;38513;53.234;6.568;2023-04-15T05:44:32;26.25;;;19.83;;
52618;SDS011;38513;53.234;6.568;2023-04-15T05:46:58;26.65;;;19.98;;
52618;SDS011;38513;53.234;6.568;2023-04-15T05:49:25;27.27;;;19.25;;
52618;SDS011;38513;53.234;6.568;2023-04-15T05:51:51;26.58;;;18.60;;
52618;SDS011;38513;53.234;6.568;2023-04-15T05:54:23;25.60;;;18.90;;
52618;SDS011;38513;53.234;6.568;2023-04-15T05:56:50;26.50;;;18.27;;
52618;SDS011;38513;53.234;6.568;2023-04-15T05:59:16;24.58;;;18.50;;
52618;SDS011;38513;53.234;6.568;2023-04-15T06:01:50;24.60;;;17.60;;
52618;SDS011;38513;53.234;6.568;2023-04-15T06:04:19;30.05;;;18.98;;
52618;SDS011;38513;53.234;6.568;2023-04-15T06:06:47;27.27;;;19.02;;
52618;SDS011;38513;53.234;6.568;2023-04-15T06:09:13;27.13;;;18.67;;
52618;SDS011;38513;53.234;6.568;2023-04-15T06:11:41;29.60;;;19.20;;
52618;SDS011;38513;53.234;6.568;2023-04-15T06:14:11;27.73;;;18.60;;
52618;SDS011;38513;53.234;6.568;2023-04-15T06:16:37;27.90;;;18.40;;
52618;SDS011;38513;53.234;6.568;2023-04-15T06:19:03;27.17;;;19.05;;
52618;SDS011;38513;53.234;6.568;2023-04-15T06:21:29;27.95;;;18.98;;
52618;SDS011;38513;53.234;6.568;2023-04-15T06:23:57;29.00;;;19.58;;
52618;SDS011;38513;53.234;6.568;2023-04-15T06:26:27;29.38;;;18.15;;
52618;SDS011;38513;53.234;6.568;2023-04-15T06:28:55;27.52;;;18.30;;
52618;SDS011;38513;53.234;6.568;2023-04-15T06:31:24;25.90;;;18.58;;
52618;SDS011;38513;53.234;6.568;2023-04-15T06:33:50;26.58;;;18.25;;
52618;SDS011;38513;53.234;6.568;2023-04-15T06:36:17;28.83;;;18.43;;
52618;SDS011;38513;53.234;6.568;2023-04-15T06:38:46;26.30;;;17.98;;
52618;SDS011;38513;53.234;6.568;2023-04-15T06:41:12;25.85;;;17.77;;
52618;SDS011;38513;53.234;6.568;2023-04-15T06:43:39;26.23;;;17.50;;
52618;SDS011;38513;53.234;6.568;2023-04-15T06:46:05;27.42;;;17.50;;
52618;SDS011;38513;53.234;6.568;2023-04-15T06:48:31;23.70;;;16.20;;
52618;SDS011;38513;53.234;6.568;2023-04-15T06:51:00;22.13;;;14.73;;
52618;SDS011;38513;53.234;6.568;2023-04-15T06:53:28;22.45;;;15.90;;
52618;SDS011;38513;53.234;6.568;2023-04-15T06:55:54;23.55;;;15.90;;
52618;SDS011;38513;53.234;6.568;2023-04-15T06:58:20;23.85;;;16.30;;
52618;SDS011;38513;53.234;6.568;2023-04-15T07:00:47;24.92;;;16.45;;
52618;SDS011;38513;53.234;6.568;2023-04-15T07:03:13;25.67;;;16.33;;
52618;SDS011;38513;53.234;6.568;2023-04-15T07:05:40;23.67;;;15.10;;
52618;SDS011;38513;53.234;6.568;2023-04-15T07:08:06;21.42;;;14.85;;
52618;SDS011;38513;53.234;6.568;2023-04-15T07:10:32;21.77;;;13.95;;
52618;SDS011;38513;53.234;6.568;2023-04-15T07:12:59;20.42;;;14.15;;
52618;SDS011;38513;53.234;6.568;2023-04-15T07:15:25;20.25;;;12.65;;
52618;SDS011;38513;53.234;6.568;2023-04-15T07:17:52;18.50;;;12.48;;
52618;SDS011;38513;53.234;6.568;2023-04-15T07:20:24;17.63;;;11.70;;
52618;SDS011;38513;53.234;6.568;2023-04-15T07:22:58;16.45;;;10.63;;
52618;SDS011;38513;53.234;6.568;2023-04-15T07:26:00;16.80;;;11.07;;
52618;SDS011;38513;53.234;6.568;2023-04-15T07:28:45;15.53;;;10.27;;
52618;SDS011;38513;53.234;6.568;2023-04-15T07:31:12;17.13;;;10.37;;
52618;SDS011;38513;53.234;6.568;2023-04-15T07:33:39;14.45;;;9.75;;
52618;SDS011;38513;53.234;6.568;2023-04-15T07:36:05;14.82;;;9.55;;
52618;SDS011;38513;53.234;6.568;2023-04-15T07:38:32;13.98;;;9.10;;
52618;SDS011;38513;53.234;6.568;2023-04-15T07:40:58;13.30;;;9.00;;
52618;SDS011;38513;53.234;6.568;2023-04-15T07:43:24;14.75;;;8.85;;
52618;SDS011;38513;53.234;6.568;2023-04-15T07:45:58;17.85;;;9.10;;
52618;SDS011;38513;53.234;6.568;2023-04-15T07:48:24;13.13;;;8.82;;
52618;SDS011;38513;53.234;6.568;2023-04-15T07:50:51;13.13;;;8.73;;
52618;SDS011;38513;53.234;6.568;2023-04-15T07:53:18;13.65;;;8.70;;
52618;SDS011;38513;53.234;6.568;2023-04-15T07:55:48;15.77;;;8.83;;
52618;SDS011;38513;53.234;6.568;2023-04-15T07:58:14;14.15;;;8.80;;
52618;SDS011;38513;53.234;6.568;2023-04-15T08:00:41;13.27;;;8.48;;
52618;SDS011;38513;53.234;6.568;2023-04-15T08:03:07;14.27;;;8.30;;
52618;SDS011;38513;53.234;6.568;2023-04-15T08:05:36;13.13;;;8.10;;
52618;SDS011;38513;53.234;6.568;2023-04-15T08:08:02;14.60;;;8.30;;
52618;SDS011;38513;53.234;6.568;2023-04-15T08:10:31;12.67;;;8.07;;
52618;SDS011;38513;53.234;6.568;2023-04-15T08:12:57;11.90;;;7.25;;
52618;SDS011;38513;53.234;6.568;2023-04-15T08:15:24;12.40;;;6.80;;
52618;SDS011;38513;53.234;6.568;2023-04-15T08:17:56;12.38;;;8.05;;
52618;SDS011;38513;53.234;6.568;2023-04-15T08:20:28;13.40;;;6.63;;
52618;SDS011;38513;53.234;6.568;2023-04-15T08:22:54;12.13;;;6.85;;
52618;SDS011;38513;53.234;6.568;2023-04-15T08:25:21;10.57;;;6.03;;
52618;SDS011;38513;53.234;6.568;2023-04-15T08:27:47;11.57;;;6.03;;
52618;SDS011;38513;53.234;6.568;2023-04-15T08:30:16;11.20;;;5.97;;
52618;SDS011;38513;53.234;6.568;2023-04-15T08:32:44;9.73;;;5.75;;
52618;SDS011;38513;53.234;6.568;2023-04-15T08:35:13;10.80;;;5.65;;
52618;SDS011;38513;53.234;6.568;2023-04-15T08:37:39;11.80;;;6.28;;
52618;SDS011;38513;53.234;6.568;2023-04-15T08:40:07;10.90;;;5.30;;
52618;SDS011;38513;53.234;6.568;2023-04-15T08:42:39;10.73;;;4.88;;
52618;SDS011;38513;53.234;6.568;2023-04-15T08:45:09;10.43;;;4.75;;
52618;SDS011;38513;53.234;6.568;2023-04-15T08:47:36;9.40;;;4.30;;
52618;SDS011;38513;53.234;6.568;2023-04-15T08:50:07;10.63;;;4.10;;
52618;SDS011;38513;53.234;6.568;2023-04-15T08:52:34;7.75;;;3.90;;
52618;SDS011;38513;53.234;6.568;2023-04-15T08:55:01;8.02;;;3.40;;
52618;SDS011;38513;53.234;6.568;2023-04-15T08:57:27;8.10;;;3.10;;
52618;SDS011;38513;53.234;6.568;2023-04-15T08:59:57;6.72;;;3.10;;
52618;SDS011;38513;53.234;6.568;2023-04-15T09:02:41;8.75;;;3.38;;
52618;SDS011;38513;53.234;6.568;2023-04-15T09:05:08;7.95;;;3.50;;
52618;SDS011;38513;53.234;6.568;2023-04-15T09:07:34;8.25;;;3.30;;
52618;SDS011;38513;53.234;6.568;2023-04-15T09:10:02;9.00;;;3.17;;
52618;SDS011;38513;53.234;6.568;2023-04-15T09:12:28;8.20;;;3.20;;
52618;SDS011;38513;53.234;6.568;2023-04-15T09:14:54;8.05;;;3.20;;
52618;SDS011;38513;53.234;6.568;2023-04-15T09:17:21;7.82;;;3.30;;
52618;SDS011;38513;53.234;6.568;2023-04-15T09:19:48;7.13;;;2.53;;
52618;SDS011;38513;53.234;6.568;2023-04-15T09:22:19;6.70;;;2.65;;
52618;SDS011;38513;53.234;6.568;2023-04-15T09:24:48;5.80;;;2.40;;
52618;SDS011;38513;53.234;6.568;2023-04-15T09:27:15;5.97;;;2.05;;
52618;SDS011;38513;53.234;6.568;2023-04-15T09:29:41;6.38;;;2.22;;
52618;SDS011;38513;53.234;6.568;2023-04-15T09:32:10;6.25;;;2.40;;
52618;SDS011;38513;53.234;6.568;2023-04-15T09:34:37;5.65;;;2.38;;
52618;SDS011;38513;53.234;6.568;2023-04-15T09:37:04;6.05;;;2.60;;
52618;SDS011;38513;53.234;6.568;2023-04-15T09:39:46;5.25;;;2.15;;
52618;SDS011;38513;53.234;6.568;2023-04-15T09:42:14;6.07;;;2.40;;
52618;SDS011;38513;53.234;6.568;2023-04-15T09:44:41;6.22;;;2.28;;
52618;SDS011;38513;53.234;6.568;2023-04-15T09:47:08;7.20;;;2.47;;
52618;SDS011;38513;53.234;6.568;2023-04-15T09:49:34;6.53;;;2.20;;
52618;SDS011;38513;53.234;6.568;2023-04-15T09:52:00;6.63;;;2.30;;
52618;SDS011;38513;53.234;6.568;2023-04-15T09:54:34;6.15;;;2.15;;
52618;SDS011;38513;53.234;6.568;2023-04-15T09:57:04;5.05;;;1.80;;
52618;SDS011;38513;53.234;6.568;2023-04-15T09:59:31;5.85;;;2.00;;
52618;SDS011;38513;53.234;6.568;2023-04-15T10:01:57;6.63;;;1.98;;
52618;SDS011;38513;53.234;6.568;2023-04-15T10:04:24;7.45;;;1.80;;
52618;SDS011;38513;53.234;6.568;2023-04-15T10:06:52;5.97;;;1.67;;
52618;SDS011;38513;53.234;6.568;2023-04-15T10:09:18;7.00;;;2.20;;
52618;SDS011;38513;53.234;6.568;2023-04-15T10:11:45;6.40;;;2.10;;
52618;SDS011;38513;53.234;6.568;2023-04-15T10:14:13;6.68;;;2.42;;
52618;SDS011;38513;53.234;6.568;2023-04-15T10:16:40;7.13;;;2.40;;
52618;SDS011;38513;53.234;6.568;2023-04-15T10:19:07;7.10;;;2.33;;
52618;SDS011;38513;53.234;6.568;2023-04-15T10:21:35;9.90;;;2.40;;
52618;SDS011;38513;53.234;6.568;2023-04-15T10:24:02;7.68;;;2.40;;
52618;SDS011;38513;53.234;6.568;2023-04-15T10:26:28;8.65;;;3.13;;
52618;SDS011;38513;53.234;6.568;2023-04-15T10:28:55;7.43;;;2.45;;
52618;SDS011;38513;53.234;6.568;2023-04-15T10:31:21;7.35;;;2.55;;
52618;SDS011;38513;53.234;6.568;2023-04-15T10:33:48;8.00;;;2.70;;
52618;SDS011;38513;53.234;6.568;2023-04-15T10:36:16;10.05;;;3.38;;
52618;SDS011;38513;53.234;6.568;2023-04-15T10:38:43;8.98;;;3.22;;
52618;SDS011;38513;53.234;6.568;2023-04-15T10:41:28;8.40;;;3.10;;
52618;SDS011;38513;53.234;6.568;2023-04-15T10:44:03;8.38;;;3.30;;
52618;SDS011;38513;53.234;6.568;2023-04-15T10:49:23;9.48;;;3.13;;
52618;SDS011;38513;53.234;6.568;2023-04-15T10:51:56;7.95;;;3.00;;
52618;SDS011;38513;53.234;6.568;2023-04-15T10:57:05;10.77;;;2.97;;
52618;SDS011;38513;53.234;6.568;2023-04-15T10:59:35;11.45;;;3.17;;
52618;SDS011;38513;53.234;6.568;2023-04-15T11:02:02;11.77;;;3.28;;
52618;SDS011;38513;53.234;6.568;2023-04-15T11:07:14;10.18;;;3.08;;
52618;SDS011;38513;53.234;6.568;2023-04-15T11:09:41;12.05;;;3.42;;
52618;SDS011;38513;53.234;6.568;2023-04-15T11:12:07;11.20;;;2.90;;
52618;SDS011;38513;53.234;6.568;2023-04-15T11:14:55;10.18;;;2.72;;
52618;SDS011;38513;53.234;6.568;2023-04-15T11:17:27;8.68;;;2.38;;
52618;SDS011;38513;53.234;6.568;2023-04-15T11:19:54;9.75;;;2.40;;
52618;SDS011;38513;53.234;6.568;2023-04-15T11:22:23;9.05;;;2.30;;
52618;SDS011;38513;53.234;6.568;2023-04-15T11:24:50;9.07;;;2.20;;
52618;SDS011;38513;53.234;6.568;2023-04-15T11:27:23;8.85;;;2.17;;
52618;SDS011;38513;53.234;6.568;2023-04-15T11:29:49;9.40;;;2.47;;
52618;SDS011;38513;53.234;6.568;2023-04-15T11:32:17;10.68;;;2.83;;
52618;SDS011;38513;53.234;6.568;2023-04-15T11:34:44;9.75;;;2.65;;
52618;SDS011;38513;53.234;6.568;2023-04-15T11:37:12;9.63;;;2.60;;
52618;SDS011;38513;53.234;6.568;2023-04-15T11:39:38;11.43;;;3.63;;
52618;SDS011;38513;53.234;6.568;2023-04-15T11:42:38;12.48;;;3.63;;
52618;SDS011;38513;53.234;6.568;2023-04-15T11:47:36;11.35;;;2.38;;
52618;SDS011;38513;53.234;6.568;2023-04-15T11:50:18;11.00;;;2.50;;
52618;SDS011;38513;53.234;6.568;2023-04-15T11:52:53;12.65;;;3.15;;
52618;SDS011;38513;53.234;6.568;2023-04-15T11:55:19;13.15;;;2.70;;
52618;SDS011;38513;53.234;6.568;2023-04-15T11:57:45;10.93;;;2.90;;
52618;SDS011;38513;53.234;6.568;2023-04-15T12:00:12;10.80;;;2.75;;
52618;SDS011;38513;53.234;6.568;2023-04-15T12:02:38;10.32;;;2.75;;
52618;SDS011;38513;53.234;6.568;2023-04-15T12:05:05;10.40;;;2.50;;
52618;SDS011;38513;53.234;6.568;2023-04-15T12:10:17;9.75;;;2.50;;
52618;SDS011;38513;53.234;6.568;2023-04-15T12:12:43;12.07;;;3.03;;
52618;SDS011;38513;53.234;6.568;2023-04-15T12:15:16;13.75;;;2.80;;
52618;SDS011;38513;53.234;6.568;2023-04-15T12:17:48;9.00;;;2.55;;
52618;SDS011;38513;53.234;6.568;2023-04-15T12:20:19;11.27;;;2.88;;
52618;SDS011;38513;53.234;6.568;2023-04-15T12:22:46;11.20;;;2.58;;
52618;SDS011;38513;53.234;6.568;2023-04-15T12:25:13;12.65;;;2.63;;
52618;SDS011;38513;53.234;6.568;2023-04-15T12:27:40;11.95;;;2.40;;
52618;SDS011;38513;53.234;6.568;2023-04-15T12:30:06;9.13;;;2.30;;
52618;SDS011;38513;53.234;6.568;2023-04-15T12:32:34;10.30;;;2.50;;
52618;SDS011;38513;53.234;6.568;2023-04-15T12:35:01;9.07;;;2.40;;
52618;SDS011;38513;53.234;6.568;2023-04-15T12:37:27;11.77;;;2.65;;
52618;SDS011;38513;53.234;6.568;2023-04-15T12:39:53;11.80;;;2.53;;
52618;SDS011;38513;53.234;6.568;2023-04-15T12:42:19;12.00;;;2.50;;
52618;SDS011;38513;53.234;6.568;2023-04-15T12:44:46;15.15;;;2.60;;
52618;SDS011;38513;53.234;6.568;2023-04-15T12:47:12;14.27;;;2.55;;
52618;SDS011;38513;53.234;6.568;2023-04-15T12:49:39;12.93;;;2.93;;
52618;SDS011;38513;53.234;6.568;2023-04-15T12:52:05;13.50;;;2.90;;
52618;SDS011;38513;53.234;6.568;2023-04-15T12:54:31;12.13;;;2.50;;
52618;SDS011;38513;53.234;6.568;2023-04-15T12:57:03;13.20;;;2.53;;
52618;SDS011;38513;53.234;6.568;2023-04-15T12:59:29;10.38;;;2.58;;
52618;SDS011;38513;53.234;6.568;2023-04-15T13:01:55;10.25;;;2.08;;
52618;SDS011;38513;53.234;6.568;2023-04-15T13:04:22;10.68;;;2.45;;
52618;SDS011;38513;53.234;6.568;2023-04-15T13:06:49;11.75;;;2.42;;
52618;SDS011;38513;53.234;6.568;2023-04-15T13:09:16;11.30;;;2.40;;
52618;SDS011;38513;53.234;6.568;2023-04-15T13:11:42;14.00;;;2.97;;
52618;SDS011;38513;53.234;6.568;2023-04-15T13:14:08;12.13;;;2.67;;
52618;SDS011;38513;53.234;6.568;2023-04-15T13:16:38;13.82;;;2.60;;
52618;SDS011;38513;53.234;6.568;2023-04-15T13:19:04;13.40;;;2.75;;
52618;SDS011;38513;53.234;6.568;2023-04-15T13:21:30;12.38;;;2.65;;
52618;SDS011;38513;53.234;6.568;2023-04-15T13:23:59;12.45;;;2.97;;
52618;SDS011;38513;53.234;6.568;2023-04-15T13:26:28;12.57;;;2.80;;
52618;SDS011;38513;53.234;6.568;2023-04-15T13:28:55;11.57;;;2.83;;
52618;SDS011;38513;53.234;6.568;2023-04-15T13:31:21;15.07;;;2.92;;
52618;SDS011;38513;53.234;6.568;2023-04-15T13:33:48;15.48;;;3.35;;
52618;SDS011;38513;53.234;6.568;2023-04-15T13:36:14;12.55;;;2.80;;
52618;SDS011;38513;53.234;6.568;2023-04-15T13:38:40;11.25;;;2.30;;
52618;SDS011;38513;53.234;6.568;2023-04-15T13:41:06;13.27;;;3.45;;
52618;SDS011;38513;53.234;6.568;2023-04-15T13:43:36;10.90;;;2.58;;
52618;SDS011;38513;53.234;6.568;2023-04-15T13:46:02;11.80;;;2.60;;
52618;SDS011;38513;53.234;6.568;2023-04-15T13:48:28;13.60;;;2.67;;
52618;SDS011;38513;53.234;6.568;2023-04-15T13:50:54;11.70;;;2.60;;
52618;SDS011;38513;53.234;6.568;2023-04-15T13:53:20;14.02;;;2.75;;
52618;SDS011;38513;53.234;6.568;2023-04-15T13:55:47;12.90;;;2.92;;
52618;SDS011;38513;53.234;6.568;2023-04-15T13:58:14;14.07;;;3.27;;
52618;SDS011;38513;53.234;6.568;2023-04-15T14:00:41;14.18;;;3.50;;
52618;SDS011;38513;53.234;6.568;2023-04-15T14:03:11;11.40;;;2.85;;
52618;SDS011;38513;53.234;6.568;2023-04-15T14:05:37;13.98;;;3.17;;
52618;SDS011;38513;53.234;6.568;2023-04-15T14:08:06;12.48;;;3.10;;
52618;SDS011;38513;53.234;6.568;2023-04-15T14:10:32;12.38;;;3.35;;
52618;SDS011;38513;53.234;6.568;2023-04-15T14:13:01;16.75;;;3.13;;
52618;SDS011;38513;53.234;6.568;2023-04-15T14:15:27;11.48;;;3.00;;
52618;SDS011;38513;53.234;6.568;2023-04-15T14:17:53;15.05;;;3.40;;
52618;SDS011;38513;53.234;6.568;2023-04-15T14:20:20;13.85;;;3.53;;
52618;SDS011;38513;53.234;6.568;2023-04-15T14:22:46;13.55;;;3.17;;
52618;SDS011;38513;53.234;6.568;2023-04-15T14:25:12;14.15;;;3.20;;
52618;SDS011;38513;53.234;6.568;2023-04-15T14:27:38;17.05;;;3.65;;
52618;SDS011;38513;53.234;6.568;2023-04-15T14:30:05;16.35;;;3.80;;
52618;SDS011;38513;53.234;6.568;2023-04-15T14:32:31;15.20;;;3.55;;
52618;SDS011;38513;53.234;6.568;2023-04-15T14:34:59;17.08;;;3.85;;
52618;SDS011;38513;53.234;6.568;2023-04-15T14:37:43;17.40;;;4.15;;
52618;SDS011;38513;53.234;6.568;2023-04-15T14:40:09;13.52;;;3.80;;
52618;SDS011;38513;53.234;6.568;2023-04-15T14:42:39;15.23;;;3.70;;
52618;SDS011;38513;53.234;6.568;2023-04-15T14:45:05;14.47;;;3.80;;
52618;SDS011;38513;53.234;6.568;2023-04-15T14:47:34;15.75;;;3.60;;